createdAt,value
2023-04-18T00:04:09.452Z,5.09
2023-04-18T00:09:12.592Z,4.92
2023-04-18T00:14:15.734Z,4.89
2023-04-18T00:19:19.200Z,4.69
2023-04-18T00:24:22.598Z,4.59
2023-04-18T00:29:25.773Z,4.58
2023-04-18T00:34:29.331Z,4.48
2023-04-18T00:39:32.417Z,4.34
2023-04-18T00:44:35.522Z,4.34
2023-04-18T00:49:38.659Z,4.37
2023-04-18T00:54:43.115Z,4.25
2023-04-18T00:59:47.566Z,4.23
2023-04-18T01:04:50.613Z,4.02
2023-04-18T01:09:54.392Z,4.13
2023-04-18T01:14:57.587Z,4.08
2023-04-18T01:20:02.272Z,3.91
2023-04-18T01:25:09.732Z,3.76
2023-04-18T01:30:13.116Z,3.83
2023-04-18T01:35:16.336Z,3.80
2023-04-18T01:40:19.433Z,3.70
2023-04-18T01:45:23.458Z,3.78
2023-04-18T01:50:26.412Z,3.66
2023-04-18T01:55:29.381Z,3.46
2023-04-18T02:00:32.413Z,3.44
2023-04-18T02:05:37.780Z,3.50
2023-04-18T02:10:44.332Z,3.42
2023-04-18T02:15:47.458Z,3.37
2023-04-18T02:20:52.282Z,3.39
2023-04-18T02:25:57.690Z,3.44
2023-04-18T02:31:01.106Z,3.35
2023-04-18T02:36:04.625Z,3.46
2023-04-18T02:41:08.063Z,3.62
2023-04-18T02:46:11.113Z,3.80
2023-04-18T02:51:14.125Z,3.94
2023-04-18T02:56:19.185Z,4.27
2023-04-18T03:01:54.430Z,5.22
2023-04-18T03:06:59.623Z,5.51
2023-04-18T03:12:05.448Z,5.61
2023-04-18T03:17:10.482Z,5.97
2023-04-18T03:22:16.992Z,6.55
2023-04-18T03:27:27.660Z,6.66
2023-04-18T03:32:34.049Z,6.85
2023-04-18T03:37:37.411Z,7.44
2023-04-18T03:42:44.175Z,7.82
2023-04-18T03:47:47.349Z,8.84
2023-04-18T03:52:52.663Z,9.67
2023-04-18T03:57:55.867Z,11.58
2023-04-18T04:03:04.003Z,12.67
2023-04-18T04:08:07.235Z,13.34
2023-04-18T04:13:10.905Z,14.29
2023-04-18T04:18:16.238Z,15.19
2023-04-18T04:23:20.475Z,15.95
2023-04-18T04:28:24.984Z,16.23
2023-04-18T04:33:33.980Z,16.62
2023-04-18T04:38:40.811Z,16.96
2023-04-18T04:43:44.573Z,17.61
2023-04-18T04:48:50.755Z,17.94
2023-04-18T04:53:54.994Z,18.12
2023-04-18T04:58:59.401Z,17.92
2023-04-18T05:04:10.498Z,18.00
2023-04-18T05:09:14.041Z,18.05
2023-04-18T05:14:18.027Z,17.62
2023-04-18T05:19:21.017Z,18.24
2023-04-18T05:24:24.024Z,18.39
2023-04-18T05:29:27.064Z,18.33
2023-04-18T05:34:30.701Z,18.06
2023-04-18T05:39:33.777Z,18.81
2023-04-18T05:44:37.397Z,18.89
2023-04-18T05:49:40.406Z,18.06
2023-04-18T05:54:43.465Z,18.59
2023-04-18T05:59:46.516Z,18.93
2023-04-18T06:04:50.174Z,19.53
2023-04-18T06:09:54.428Z,19.09
2023-04-18T06:14:57.512Z,19.27
2023-04-18T06:20:00.747Z,19.39
2023-04-18T06:25:04.135Z,19.03
2023-04-18T06:30:08.588Z,19.10
2023-04-18T06:35:11.708Z,18.84
2023-04-18T06:40:14.765Z,19.36
2023-04-18T06:45:17.940Z,18.84
2023-04-18T06:50:20.948Z,19.15
2023-04-18T06:55:23.929Z,18.79
2023-04-18T07:00:27.166Z,18.80
2023-04-18T07:05:30.258Z,18.69
2023-04-18T07:10:33.342Z,18.20
2023-04-18T07:15:36.579Z,18.31
2023-04-18T07:20:39.681Z,18.37
2023-04-18T07:25:42.666Z,17.74
2023-04-18T07:30:46.443Z,17.85
2023-04-18T07:35:50.583Z,17.48
2023-04-18T07:40:58.633Z,17.61
2023-04-18T07:46:01.887Z,17.74
2023-04-18T07:51:05.066Z,17.15
2023-04-18T07:56:08.068Z,17.24
2023-04-18T08:01:15.226Z,17.29
2023-04-18T08:06:18.371Z,16.96
2023-04-18T08:11:21.464Z,15.91
2023-04-18T08:16:24.451Z,16.38
2023-04-18T08:21:27.598Z,16.52
2023-04-18T08:26:30.617Z,17.09
2023-04-18T08:31:33.652Z,16.59
2023-04-18T08:36:36.735Z,16.49
2023-04-18T08:41:43.446Z,16.21
2023-04-18T08:46:46.734Z,16.16
2023-04-18T08:51:52.310Z,16.35
2023-04-18T08:57:09.083Z,16.05
2023-04-18T09:02:12.542Z,16.22
2023-04-18T09:07:17.378Z,15.96
2023-04-18T09:12:25.695Z,16.35
2023-04-18T09:17:38.183Z,16.43
2023-04-18T09:22:52.651Z,16.93
2023-04-18T09:28:01.326Z,16.65
2023-04-18T09:33:07.874Z,16.43
2023-04-18T09:38:11.125Z,16.41
2023-04-18T09:43:21.211Z,16.35
2023-04-18T09:48:24.225Z,16.43
2023-04-18T09:53:28.763Z,16.78
2023-04-18T09:58:34.594Z,16.72
2023-04-18T10:03:50.134Z,16.73
2023-04-18T10:08:55.150Z,16.55
2023-04-18T10:14:03.104Z,16.21
2023-04-18T10:19:28.754Z,16.10
2023-04-18T10:24:54.177Z,15.84
2023-04-18T10:29:57.122Z,16.47
2023-04-18T10:35:00.990Z,16.59
2023-04-18T10:40:07.873Z,16.42
2023-04-18T10:45:30.030Z,16.76
2023-04-18T10:50:33.162Z,16.81
2023-04-18T10:55:38.151Z,16.81
2023-04-18T11:00:41.262Z,16.77
2023-04-18T11:05:44.814Z,16.63
2023-04-18T11:10:58.247Z,16.40
2023-04-18T11:16:01.664Z,16.28
2023-04-18T11:21:05.004Z,16.75
2023-04-18T11:26:17.818Z,17.03
2023-04-18T11:31:23.740Z,16.79
2023-04-18T11:36:27.193Z,16.76
2023-04-18T11:41:30.196Z,16.84
2023-04-18T11:46:40.003Z,16.63
2023-04-18T11:51:46.597Z,16.61
2023-04-18T11:56:49.863Z,16.18
2023-04-18T12:02:14.694Z,16.27
2023-04-18T12:07:36.323Z,15.94
2023-04-18T12:12:52.165Z,16.30
2023-04-18T12:18:04.402Z,16.63
2023-04-18T12:23:08.776Z,16.65
2023-04-18T12:28:18.931Z,16.74
2023-04-18T12:33:22.122Z,16.66
2023-04-18T12:38:25.218Z,16.59
2023-04-18T12:43:28.252Z,16.45
2023-04-18T12:48:31.248Z,16.54
2023-04-18T12:53:34.330Z,16.62
2023-04-18T12:58:37.291Z,16.87
2023-04-18T13:03:40.574Z,16.78
2023-04-18T13:08:43.699Z,16.62
2023-04-18T13:13:46.948Z,16.73
2023-04-18T13:18:49.981Z,16.70
2023-04-18T13:23:53.046Z,16.64
2023-04-18T13:28:56.016Z,16.68
2023-04-18T13:33:59.092Z,16.53
2023-04-18T13:39:02.324Z,16.60
2023-04-18T13:44:05.388Z,16.57
2023-04-18T13:49:08.374Z,16.59
2023-04-18T13:54:15.062Z,16.41
2023-04-18T13:59:18.072Z,16.42
2023-04-18T14:04:22.779Z,16.42
2023-04-18T14:09:27.128Z,16.27
2023-04-18T14:14:30.277Z,16.28
2023-04-18T14:19:33.230Z,16.32
2023-04-18T14:24:36.765Z,16.32
2023-04-18T14:29:39.771Z,16.40
2023-04-18T14:34:43.227Z,16.34
2023-04-18T14:39:46.555Z,16.29
2023-04-18T14:44:49.570Z,16.28
2023-04-18T14:49:52.591Z,16.30
2023-04-18T14:54:55.739Z,16.21
2023-04-18T14:59:58.761Z,15.88
2023-04-18T15:05:03.856Z,15.91
2023-04-18T15:10:07.782Z,15.69
2023-04-18T15:15:11.151Z,15.61
2023-04-18T15:20:14.217Z,15.55
2023-04-18T15:25:17.537Z,15.47
2023-04-18T15:30:20.800Z,15.39
2023-04-18T15:35:23.993Z,15.18
2023-04-18T15:40:27.140Z,15.13
2023-04-18T15:45:30.798Z,14.98
2023-04-18T15:50:34.166Z,14.72
2023-04-18T15:55:37.302Z,14.71
2023-04-18T16:00:40.344Z,14.53
2023-04-18T16:05:43.432Z,14.37
2023-04-18T16:10:46.419Z,14.22
2023-04-18T16:15:49.548Z,14.08
2023-04-18T16:20:52.513Z,14.04
2023-04-18T16:25:55.576Z,13.99
2023-04-18T16:30:58.634Z,13.88
2023-04-18T16:36:04.948Z,13.81
2023-04-18T16:41:07.915Z,13.76
2023-04-18T16:46:12.254Z,13.76
2023-04-18T16:51:15.353Z,13.90
2023-04-18T16:56:18.312Z,13.80
2023-04-18T17:01:21.388Z,13.72
2023-04-18T17:06:25.053Z,13.73
2023-04-18T17:11:28.288Z,13.67
2023-04-18T17:16:31.282Z,13.58
2023-04-18T17:21:35.533Z,13.39
2023-04-18T17:26:39.614Z,13.39
2023-04-18T17:31:42.624Z,13.34
2023-04-18T17:36:45.624Z,13.09
2023-04-18T17:41:48.694Z,12.97
2023-04-18T17:46:51.681Z,13.01
2023-04-18T17:51:54.702Z,12.89
2023-04-18T17:56:58.174Z,12.74
2023-04-18T18:02:01.222Z,12.74
2023-04-18T18:07:04.520Z,12.56
2023-04-18T18:12:08.737Z,12.46
2023-04-18T18:17:11.835Z,12.41
2023-04-18T18:22:14.879Z,12.40
2023-04-18T18:27:20.528Z,12.17
2023-04-18T18:32:23.810Z,12.08
2023-04-18T18:37:27.025Z,12.05
2023-04-18T18:42:30.019Z,11.88
2023-04-18T18:47:34.543Z,11.74
2023-04-18T18:52:40.875Z,11.76
2023-04-18T18:57:43.850Z,11.67
2023-04-18T19:02:47.077Z,11.40
2023-04-18T19:07:51.717Z,11.46
2023-04-18T19:12:54.744Z,11.42
2023-04-18T19:17:57.710Z,11.54
2023-04-18T19:23:00.812Z,11.48
2023-04-18T19:28:06.079Z,11.25
2023-04-18T19:33:09.133Z,11.27
2023-04-18T19:38:12.199Z,11.08
2023-04-18T19:43:15.259Z,11.00
2023-04-18T19:48:18.184Z,11.02
2023-04-18T19:53:21.192Z,11.02
2023-04-18T19:58:45.293Z,10.96
2023-04-18T20:03:48.666Z,10.96
2023-04-18T20:08:51.804Z,10.87
2023-04-18T20:13:56.244Z,10.72
2023-04-18T20:19:18.452Z,10.76
2023-04-18T20:24:21.585Z,10.74
2023-04-18T20:29:24.680Z,10.68
2023-04-18T20:34:55.372Z,10.59
2023-04-18T20:40:16.526Z,10.51
2023-04-18T20:45:37.908Z,10.24
2023-04-18T20:50:59.019Z,10.28
2023-04-18T20:56:03.440Z,10.15
2023-04-18T21:01:07.389Z,10.06
2023-04-18T21:06:10.375Z,9.96
2023-04-18T21:11:13.424Z,9.81
2023-04-18T21:16:16.479Z,9.64
2023-04-18T21:21:19.608Z,9.62
2023-04-18T21:26:41.354Z,9.52
2023-04-18T21:31:44.374Z,9.50
2023-04-18T21:36:47.371Z,9.38
2023-04-18T21:41:50.466Z,9.48
2023-04-18T21:46:53.490Z,9.24
2023-04-18T21:51:56.672Z,9.20
2023-04-18T21:56:59.752Z,9.23
2023-04-18T22:02:21.655Z,9.13
2023-04-18T22:07:24.923Z,9.10
2023-04-18T22:12:27.876Z,9.04
2023-04-18T22:17:31.832Z,8.86
2023-04-18T22:22:56.576Z,8.88
2023-04-18T22:27:59.723Z,8.70
2023-04-18T22:33:02.791Z,8.63
2023-04-18T22:38:06.499Z,8.57
2023-04-18T22:43:09.585Z,8.43
2023-04-18T22:48:13.626Z,8.43
2023-04-18T22:53:17.246Z,8.44
2023-04-18T22:58:20.153Z,8.41
2023-04-18T23:03:23.190Z,8.35
2023-04-18T23:08:26.367Z,8.29
2023-04-18T23:13:29.310Z,8.31
2023-04-18T23:18:32.255Z,8.18
2023-04-18T23:23:35.179Z,8.31
2023-04-18T23:28:38.261Z,8.25
2023-04-18T23:33:41.209Z,8.27
2023-04-18T23:38:44.297Z,8.38
2023-04-18T23:43:47.241Z,8.32
2023-04-18T23:48:50.191Z,8.22
2023-04-18T23:53:53.057Z,8.22
2023-04-18T23:58:56.072Z,8.07
